VABB/BOM METAR and TAF weather

Enter ICAO airport designator
Station Type Date Time Source
VABB METAR 2019/10/14 05:30 UTC NOAA

VABB 140530Z 08008KT 3000 FU FEW100 34/23 Q1012 NOSIG


Station Type Date Time Source
VABB Decoded METAR 2019/10/14 05:30 UTC NOAA

Bombay / Santacruz, India (VABB) 19-07N 072-51E 14M
Oct 14, 2019 - 01:30 AM EDT / 2019.10.14 0530 UTC
Wind: from the E (080 degrees) at 9 MPH (8 KT):0
Visibility: 1 mile(s):0
Sky conditions: mostly clear
Weather: smoke
Temperature: 93 F (34 C)
Heat index: 101.8 F (38.8 C):1
Dew Point: 73 F (23 C)
Relative Humidity: 52%
Pressure (altimeter): 29.88 in. Hg (1012 hPa)
ob: VABB 140530Z 08008KT 3000 FU FEW100 34/23 Q1012 NOSIG
cycle: 5

Station Type Date Time Source
VABB TAF 2019/10/14 06:52 UTC NOAA

TAF VABB 140500Z 1406/1512 09007KT 3000 HZ FEW020 SCT025
BECMG 1407/1409 26008KT
BECMG 1413/1415 09005KT
TEMPO 1412/1418 2000 -TSRA SHRA SCT012 FEW030CB BKN080
BECMG 1423/1501 2500 HZ
BECMG 1504/1506 3000 HZ
BECMG 1507/1509 27008KT

Example: see airport list